sensor_id;sensor_type;location;lat;lon;timestamp;temperature;humidity
51922;DHT22;37948;53.260;6.394;2022-07-06T00:01:06;14.30;99.90
51922;DHT22;37948;53.260;6.394;2022-07-06T00:03:32;14.30;99.90
51922;DHT22;37948;53.260;6.394;2022-07-06T00:05:57;14.30;99.90
51922;DHT22;37948;53.260;6.394;2022-07-06T00:08:23;14.20;99.90
51922;DHT22;37948;53.260;6.394;2022-07-06T00:10:49;14.20;99.90
51922;DHT22;37948;53.260;6.394;2022-07-06T00:13:14;14.20;99.90
51922;DHT22;37948;53.260;6.394;2022-07-06T00:15:40;14.10;99.90
51922;DHT22;37948;53.260;6.394;2022-07-06T00:18:05;14.10;99.90
51922;DHT22;37948;53.260;6.394;2022-07-06T00:20:31;14.00;99.90
51922;DHT22;37948;53.260;6.394;2022-07-06T00:22:56;14.10;99.90
51922;DHT22;37948;53.260;6.394;2022-07-06T00:25:22;14.00;99.90
51922;DHT22;37948;53.260;6.394;2022-07-06T00:27:47;14.00;99.90
51922;DHT22;37948;53.260;6.394;2022-07-06T00:30:13;14.00;99.90
51922;DHT22;37948;53.260;6.394;2022-07-06T00:32:38;14.00;99.90
51922;DHT22;37948;53.260;6.394;2022-07-06T00:35:04;14.00;99.90
51922;DHT22;37948;53.260;6.394;2022-07-06T00:37:30;13.90;99.90
51922;DHT22;37948;53.260;6.394;2022-07-06T00:39:56;14.00;99.90
51922;DHT22;37948;53.260;6.394;2022-07-06T00:42:21;13.90;99.90
51922;DHT22;37948;53.260;6.394;2022-07-06T00:44:47;14.00;99.90
51922;DHT22;37948;53.260;6.394;2022-07-06T00:47:12;13.90;99.90
51922;DHT22;37948;53.260;6.394;2022-07-06T00:49:38;13.90;99.90
51922;DHT22;37948;53.260;6.394;2022-07-06T00:52:22;14.00;99.90
51922;DHT22;37948;53.260;6.394;2022-07-06T00:54:47;14.00;99.90
51922;DHT22;37948;53.260;6.394;2022-07-06T00:57:13;14.00;99.90
51922;DHT22;37948;53.260;6.394;2022-07-06T00:59:39;14.10;99.90
51922;DHT22;37948;53.260;6.394;2022-07-06T01:02:05;14.10;99.90
51922;DHT22;37948;53.260;6.394;2022-07-06T01:04:30;14.00;99.90
51922;DHT22;37948;53.260;6.394;2022-07-06T01:06:56;14.00;99.90
51922;DHT22;37948;53.260;6.394;2022-07-06T01:09:22;14.00;99.90
51922;DHT22;37948;53.260;6.394;2022-07-06T01:11:48;14.00;99.90
51922;DHT22;37948;53.260;6.394;2022-07-06T01:14:14;14.00;99.90
51922;DHT22;37948;53.260;6.394;2022-07-06T01:16:41;13.90;99.90
51922;DHT22;37948;53.260;6.394;2022-07-06T01:19:06;14.00;99.90
51922;DHT22;37948;53.260;6.394;2022-07-06T01:21:32;14.00;99.90
51922;DHT22;37948;53.260;6.394;2022-07-06T01:23:57;14.00;99.90
51922;DHT22;37948;53.260;6.394;2022-07-06T01:26:23;14.00;99.90
51922;DHT22;37948;53.260;6.394;2022-07-06T01:28:50;14.00;99.90
51922;DHT22;37948;53.260;6.394;2022-07-06T01:31:22;14.10;99.90
51922;DHT22;37948;53.260;6.394;2022-07-06T01:33:55;14.10;99.90
51922;DHT22;37948;53.260;6.394;2022-07-06T01:36:21;14.10;99.90
51922;DHT22;37948;53.260;6.394;2022-07-06T01:41:13;14.20;99.90
51922;DHT22;37948;53.260;6.394;2022-07-06T01:43:39;14.30;99.90
51922;DHT22;37948;53.260;6.394;2022-07-06T01:46:05;14.20;99.90
51922;DHT22;37948;53.260;6.394;2022-07-06T01:48:30;14.20;99.90
51922;DHT22;37948;53.260;6.394;2022-07-06T01:50:56;14.20;99.90
51922;DHT22;37948;53.260;6.394;2022-07-06T01:53:22;14.20;99.90
51922;DHT22;37948;53.260;6.394;2022-07-06T01:55:47;14.20;99.90
51922;DHT22;37948;53.260;6.394;2022-07-06T01:58:13;14.20;99.90
51922;DHT22;37948;53.260;6.394;2022-07-06T02:00:38;14.20;99.90
51922;DHT22;37948;53.260;6.394;2022-07-06T02:03:04;14.20;99.90
51922;DHT22;37948;53.260;6.394;2022-07-06T02:05:29;14.10;99.90
51922;DHT22;37948;53.260;6.394;2022-07-06T02:07:55;14.10;99.90
51922;DHT22;37948;53.260;6.394;2022-07-06T02:10:20;14.10;99.90
51922;DHT22;37948;53.260;6.394;2022-07-06T02:12:46;14.10;99.90
51922;DHT22;37948;53.260;6.394;2022-07-06T02:15:12;14.00;99.90
51922;DHT22;37948;53.260;6.394;2022-07-06T02:17:38;13.90;99.90
51922;DHT22;37948;53.260;6.394;2022-07-06T02:20:04;13.90;99.90
51922;DHT22;37948;53.260;6.394;2022-07-06T02:22:30;13.90;99.90
51922;DHT22;37948;53.260;6.394;2022-07-06T02:24:56;13.80;99.90
51922;DHT22;37948;53.260;6.394;2022-07-06T02:27:21;13.80;99.90
51922;DHT22;37948;53.260;6.394;2022-07-06T02:29:47;13.70;99.90
51922;DHT22;37948;53.260;6.394;2022-07-06T02:32:12;13.70;99.90
51922;DHT22;37948;53.260;6.394;2022-07-06T02:34:38;13.60;99.90
51922;DHT22;37948;53.260;6.394;2022-07-06T02:37:03;13.60;99.90
51922;DHT22;37948;53.260;6.394;2022-07-06T02:39:29;13.60;99.90
51922;DHT22;37948;53.260;6.394;2022-07-06T02:41:55;13.50;99.90
51922;DHT22;37948;53.260;6.394;2022-07-06T02:44:20;13.50;99.90
51922;DHT22;37948;53.260;6.394;2022-07-06T02:46:46;13.40;99.90
51922;DHT22;37948;53.260;6.394;2022-07-06T02:49:11;13.40;99.90
51922;DHT22;37948;53.260;6.394;2022-07-06T02:51:37;13.40;99.90
51922;DHT22;37948;53.260;6.394;2022-07-06T02:54:02;13.30;99.90
51922;DHT22;37948;53.260;6.394;2022-07-06T02:56:28;13.20;99.90
51922;DHT22;37948;53.260;6.394;2022-07-06T02:58:54;13.20;99.90
51922;DHT22;37948;53.260;6.394;2022-07-06T03:01:19;13.10;99.90
51922;DHT22;37948;53.260;6.394;2022-07-06T03:03:45;13.10;99.90
51922;DHT22;37948;53.260;6.394;2022-07-06T03:06:11;13.10;99.90
51922;DHT22;37948;53.260;6.394;2022-07-06T03:08:36;13.10;99.90
51922;DHT22;37948;53.260;6.394;2022-07-06T03:11:02;13.00;99.90
51922;DHT22;37948;53.260;6.394;2022-07-06T03:13:27;13.00;99.90
51922;DHT22;37948;53.260;6.394;2022-07-06T03:15:54;13.00;99.90
51922;DHT22;37948;53.260;6.394;2022-07-06T03:18:19;13.00;99.90
51922;DHT22;37948;53.260;6.394;2022-07-06T03:20:45;12.90;99.90
51922;DHT22;37948;53.260;6.394;2022-07-06T03:23:11;12.90;99.90
51922;DHT22;37948;53.260;6.394;2022-07-06T03:25:36;12.90;99.90
51922;DHT22;37948;53.260;6.394;2022-07-06T03:28:02;12.80;99.90
51922;DHT22;37948;53.260;6.394;2022-07-06T03:30:27;12.80;99.90
51922;DHT22;37948;53.260;6.394;2022-07-06T03:32:53;12.70;99.90
51922;DHT22;37948;53.260;6.394;2022-07-06T03:35:19;12.70;99.90
51922;DHT22;37948;53.260;6.394;2022-07-06T03:37:44;12.60;99.90
51922;DHT22;37948;53.260;6.394;2022-07-06T03:40:10;12.60;99.90
51922;DHT22;37948;53.260;6.394;2022-07-06T03:42:36;12.60;99.90
51922;DHT22;37948;53.260;6.394;2022-07-06T03:45:03;12.60;99.90
51922;DHT22;37948;53.260;6.394;2022-07-06T03:47:29;12.50;99.90
51922;DHT22;37948;53.260;6.394;2022-07-06T03:49:55;12.50;99.90
51922;DHT22;37948;53.260;6.394;2022-07-06T03:52:21;12.50;99.90
51922;DHT22;37948;53.260;6.394;2022-07-06T03:54:47;12.40;99.90
51922;DHT22;37948;53.260;6.394;2022-07-06T03:57:12;12.40;99.90
51922;DHT22;37948;53.260;6.394;2022-07-06T03:59:42;12.40;99.90
51922;DHT22;37948;53.260;6.394;2022-07-06T04:02:07;12.40;99.90
51922;DHT22;37948;53.260;6.394;2022-07-06T04:04:34;12.40;99.90
51922;DHT22;37948;53.260;6.394;2022-07-06T04:06:59;12.30;99.90
51922;DHT22;37948;53.260;6.394;2022-07-06T04:09:25;12.40;99.90
51922;DHT22;37948;53.260;6.394;2022-07-06T04:11:51;12.30;99.90
51922;DHT22;37948;53.260;6.394;2022-07-06T04:14:17;12.20;99.90
51922;DHT22;37948;53.260;6.394;2022-07-06T04:16:43;12.30;99.90
51922;DHT22;37948;53.260;6.394;2022-07-06T04:19:09;12.40;99.90
51922;DHT22;37948;53.260;6.394;2022-07-06T04:21:34;12.40;99.90
51922;DHT22;37948;53.260;6.394;2022-07-06T04:24:00;12.50;99.90
51922;DHT22;37948;53.260;6.394;2022-07-06T04:26:26;12.60;99.90
51922;DHT22;37948;53.260;6.394;2022-07-06T04:28:51;12.70;99.90
51922;DHT22;37948;53.260;6.394;2022-07-06T04:31:17;12.80;99.90
51922;DHT22;37948;53.260;6.394;2022-07-06T04:33:42;12.90;99.90
51922;DHT22;37948;53.260;6.394;2022-07-06T04:36:09;12.90;99.90
51922;DHT22;37948;53.260;6.394;2022-07-06T04:38:35;13.00;99.90
51922;DHT22;37948;53.260;6.394;2022-07-06T04:41:01;13.00;99.90
51922;DHT22;37948;53.260;6.394;2022-07-06T04:43:27;13.10;99.90
51922;DHT22;37948;53.260;6.394;2022-07-06T04:45:52;13.20;99.90
51922;DHT22;37948;53.260;6.394;2022-07-06T04:48:18;13.20;99.90
51922;DHT22;37948;53.260;6.394;2022-07-06T04:50:43;13.30;99.90
51922;DHT22;37948;53.260;6.394;2022-07-06T04:53:09;13.30;99.90
51922;DHT22;37948;53.260;6.394;2022-07-06T04:55:34;13.40;99.90
51922;DHT22;37948;53.260;6.394;2022-07-06T04:58:00;13.40;99.90
51922;DHT22;37948;53.260;6.394;2022-07-06T05:00:25;13.50;99.90
51922;DHT22;37948;53.260;6.394;2022-07-06T05:02:51;13.50;99.90
51922;DHT22;37948;53.260;6.394;2022-07-06T05:05:17;13.60;99.90
51922;DHT22;37948;53.260;6.394;2022-07-06T05:07:43;13.60;99.90
51922;DHT22;37948;53.260;6.394;2022-07-06T05:10:09;13.60;99.90
51922;DHT22;37948;53.260;6.394;2022-07-06T05:12:35;13.70;99.90
51922;DHT22;37948;53.260;6.394;2022-07-06T05:15:01;13.70;99.90
51922;DHT22;37948;53.260;6.394;2022-07-06T05:17:27;13.80;99.90
51922;DHT22;37948;53.260;6.394;2022-07-06T05:19:52;13.70;99.90
51922;DHT22;37948;53.260;6.394;2022-07-06T05:22:18;13.70;99.90
51922;DHT22;37948;53.260;6.394;2022-07-06T05:24:44;13.70;99.90
51922;DHT22;37948;53.260;6.394;2022-07-06T05:27:09;13.70;99.90
51922;DHT22;37948;53.260;6.394;2022-07-06T05:29:35;13.70;99.90
51922;DHT22;37948;53.260;6.394;2022-07-06T05:32:01;13.70;99.90
51922;DHT22;37948;53.260;6.394;2022-07-06T05:34:27;13.70;99.90
51922;DHT22;37948;53.260;6.394;2022-07-06T05:36:53;13.70;99.90
51922;DHT22;37948;53.260;6.394;2022-07-06T05:39:18;13.70;99.90
51922;DHT22;37948;53.260;6.394;2022-07-06T05:41:46;13.70;99.90
51922;DHT22;37948;53.260;6.394;2022-07-06T05:44:12;13.70;99.90
51922;DHT22;37948;53.260;6.394;2022-07-06T05:46:38;13.70;99.90
51922;DHT22;37948;53.260;6.394;2022-07-06T05:49:03;13.80;99.90
51922;DHT22;37948;53.260;6.394;2022-07-06T05:51:47;13.80;99.90
51922;DHT22;37948;53.260;6.394;2022-07-06T05:54:14;13.80;99.90
51922;DHT22;37948;53.260;6.394;2022-07-06T05:56:40;13.80;99.90
51922;DHT22;37948;53.260;6.394;2022-07-06T05:59:06;13.80;99.90
51922;DHT22;37948;53.260;6.394;2022-07-06T06:01:31;13.80;99.90
51922;DHT22;37948;53.260;6.394;2022-07-06T06:03:57;13.80;99.90
51922;DHT22;37948;53.260;6.394;2022-07-06T06:06:25;13.80;99.90
51922;DHT22;37948;53.260;6.394;2022-07-06T06:08:50;13.80;99.90
51922;DHT22;37948;53.260;6.394;2022-07-06T06:11:16;13.90;99.90
51922;DHT22;37948;53.260;6.394;2022-07-06T06:13:41;13.90;99.90
51922;DHT22;37948;53.260;6.394;2022-07-06T06:16:07;13.90;99.90
51922;DHT22;37948;53.260;6.394;2022-07-06T06:18:32;13.90;99.90
51922;DHT22;37948;53.260;6.394;2022-07-06T06:20:58;13.90;99.90
51922;DHT22;37948;53.260;6.394;2022-07-06T06:23:24;14.00;99.90
51922;DHT22;37948;53.260;6.394;2022-07-06T06:25:49;14.00;99.90
51922;DHT22;37948;53.260;6.394;2022-07-06T06:28:15;14.00;99.90
51922;DHT22;37948;53.260;6.394;2022-07-06T06:30:40;14.00;99.90
51922;DHT22;37948;53.260;6.394;2022-07-06T06:35:32;14.10;99.90
51922;DHT22;37948;53.260;6.394;2022-07-06T06:37:58;14.20;99.90
51922;DHT22;37948;53.260;6.394;2022-07-06T06:40:23;14.30;99.90
51922;DHT22;37948;53.260;6.394;2022-07-06T06:42:49;14.40;99.90
51922;DHT22;37948;53.260;6.394;2022-07-06T06:45:14;14.50;99.90
51922;DHT22;37948;53.260;6.394;2022-07-06T06:47:40;14.60;99.90
51922;DHT22;37948;53.260;6.394;2022-07-06T06:50:06;14.70;99.90
51922;DHT22;37948;53.260;6.394;2022-07-06T06:52:32;14.70;99.90
51922;DHT22;37948;53.260;6.394;2022-07-06T06:54:57;14.60;99.90
51922;DHT22;37948;53.260;6.394;2022-07-06T06:57:23;14.60;99.90
51922;DHT22;37948;53.260;6.394;2022-07-06T06:59:49;14.70;99.90
51922;DHT22;37948;53.260;6.394;2022-07-06T07:02:14;14.80;99.90
51922;DHT22;37948;53.260;6.394;2022-07-06T07:04:40;14.90;99.90
51922;DHT22;37948;53.260;6.394;2022-07-06T07:07:05;14.90;99.90
51922;DHT22;37948;53.260;6.394;2022-07-06T07:09:31;15.00;99.90
51922;DHT22;37948;53.260;6.394;2022-07-06T07:11:56;15.10;99.90
51922;DHT22;37948;53.260;6.394;2022-07-06T07:14:23;15.20;99.90
51922;DHT22;37948;53.260;6.394;2022-07-06T07:16:48;15.30;99.90
51922;DHT22;37948;53.260;6.394;2022-07-06T07:19:14;15.40;99.90
51922;DHT22;37948;53.260;6.394;2022-07-06T07:21:39;15.50;99.90
51922;DHT22;37948;53.260;6.394;2022-07-06T07:24:05;15.50;99.90
51922;DHT22;37948;53.260;6.394;2022-07-06T07:26:32;15.60;99.90
51922;DHT22;37948;53.260;6.394;2022-07-06T07:28:58;15.60;99.90
51922;DHT22;37948;53.260;6.394;2022-07-06T07:31:23;15.70;99.90
51922;DHT22;37948;53.260;6.394;2022-07-06T07:33:49;15.70;99.90
51922;DHT22;37948;53.260;6.394;2022-07-06T07:36:15;15.70;99.90
51922;DHT22;37948;53.260;6.394;2022-07-06T07:38:40;15.80;99.90
51922;DHT22;37948;53.260;6.394;2022-07-06T07:41:06;15.90;99.90
51922;DHT22;37948;53.260;6.394;2022-07-06T07:43:32;16.00;99.90
51922;DHT22;37948;53.260;6.394;2022-07-06T07:45:57;16.10;99.90
51922;DHT22;37948;53.260;6.394;2022-07-06T07:48:23;16.10;99.90
51922;DHT22;37948;53.260;6.394;2022-07-06T07:50:48;16.10;99.90
51922;DHT22;37948;53.260;6.394;2022-07-06T07:53:14;16.20;99.90
51922;DHT22;37948;53.260;6.394;2022-07-06T07:55:39;16.20;99.90
51922;DHT22;37948;53.260;6.394;2022-07-06T07:58:05;16.20;99.90
51922;DHT22;37948;53.260;6.394;2022-07-06T08:00:31;16.10;99.90
51922;DHT22;37948;53.260;6.394;2022-07-06T08:02:56;16.10;99.90
51922;DHT22;37948;53.260;6.394;2022-07-06T08:05:22;16.10;99.90
51922;DHT22;37948;53.260;6.394;2022-07-06T08:07:48;16.10;99.90
51922;DHT22;37948;53.260;6.394;2022-07-06T08:10:13;16.20;99.90
51922;DHT22;37948;53.260;6.394;2022-07-06T08:12:39;16.20;99.90
51922;DHT22;37948;53.260;6.394;2022-07-06T08:15:05;16.30;99.90
51922;DHT22;37948;53.260;6.394;2022-07-06T08:17:31;16.40;99.90
51922;DHT22;37948;53.260;6.394;2022-07-06T08:19:57;16.40;99.90
51922;DHT22;37948;53.260;6.394;2022-07-06T08:22:22;16.50;99.90
51922;DHT22;37948;53.260;6.394;2022-07-06T08:24:48;16.50;99.90
51922;DHT22;37948;53.260;6.394;2022-07-06T08:27:14;16.60;99.90
51922;DHT22;37948;53.260;6.394;2022-07-06T08:29:40;16.60;99.90
51922;DHT22;37948;53.260;6.394;2022-07-06T08:32:05;16.60;99.90
51922;DHT22;37948;53.260;6.394;2022-07-06T08:34:31;16.70;99.90
51922;DHT22;37948;53.260;6.394;2022-07-06T08:36:56;16.80;99.90
51922;DHT22;37948;53.260;6.394;2022-07-06T08:39:22;16.80;99.90
51922;DHT22;37948;53.260;6.394;2022-07-06T08:41:49;16.70;99.90
51922;DHT22;37948;53.260;6.394;2022-07-06T08:44:16;16.70;99.90
51922;DHT22;37948;53.260;6.394;2022-07-06T08:46:42;16.60;99.90
51922;DHT22;37948;53.260;6.394;2022-07-06T08:49:08;16.40;99.90
51922;DHT22;37948;53.260;6.394;2022-07-06T08:51:37;16.30;99.90
51922;DHT22;37948;53.260;6.394;2022-07-06T08:54:04;16.30;99.90
51922;DHT22;37948;53.260;6.394;2022-07-06T08:56:30;16.20;99.90
51922;DHT22;37948;53.260;6.394;2022-07-06T08:58:55;16.20;99.90
51922;DHT22;37948;53.260;6.394;2022-07-06T09:01:22;16.30;99.90
51922;DHT22;37948;53.260;6.394;2022-07-06T09:03:49;16.30;99.90
51922;DHT22;37948;53.260;6.394;2022-07-06T09:06:16;16.50;99.90
51922;DHT22;37948;53.260;6.394;2022-07-06T09:08:45;16.70;99.90
51922;DHT22;37948;53.260;6.394;2022-07-06T09:11:11;16.80;99.90
51922;DHT22;37948;53.260;6.394;2022-07-06T09:13:37;16.80;99.90
51922;DHT22;37948;53.260;6.394;2022-07-06T09:16:13;16.80;99.90
51922;DHT22;37948;53.260;6.394;2022-07-06T09:18:39;16.80;99.90
51922;DHT22;37948;53.260;6.394;2022-07-06T09:21:06;16.90;99.90
51922;DHT22;37948;53.260;6.394;2022-07-06T09:23:32;17.10;99.90
51922;DHT22;37948;53.260;6.394;2022-07-06T09:25:58;17.20;99.90
51922;DHT22;37948;53.260;6.394;2022-07-06T09:28:23;17.20;99.90
51922;DHT22;37948;53.260;6.394;2022-07-06T09:31:08;17.30;99.90
51922;DHT22;37948;53.260;6.394;2022-07-06T09:33:34;17.50;99.90
51922;DHT22;37948;53.260;6.394;2022-07-06T09:36:00;17.50;99.90
51922;DHT22;37948;53.260;6.394;2022-07-06T09:38:27;17.40;99.90
51922;DHT22;37948;53.260;6.394;2022-07-06T09:40:54;17.50;99.90
51922;DHT22;37948;53.260;6.394;2022-07-06T09:43:21;17.60;99.90
51922;DHT22;37948;53.260;6.394;2022-07-06T09:45:52;17.60;99.90
51922;DHT22;37948;53.260;6.394;2022-07-06T09:48:19;17.50;99.90
51922;DHT22;37948;53.260;6.394;2022-07-06T09:50:52;17.50;99.90
51922;DHT22;37948;53.260;6.394;2022-07-06T09:53:22;17.30;99.90
51922;DHT22;37948;53.260;6.394;2022-07-06T09:55:50;17.30;99.90
51922;DHT22;37948;53.260;6.394;2022-07-06T09:58:17;17.20;99.90
51922;DHT22;37948;53.260;6.394;2022-07-06T10:00:44;17.30;99.90
51922;DHT22;37948;53.260;6.394;2022-07-06T10:03:12;17.40;99.90
51922;DHT22;37948;53.260;6.394;2022-07-06T10:05:39;17.50;99.90
51922;DHT22;37948;53.260;6.394;2022-07-06T10:08:06;17.60;99.90
51922;DHT22;37948;53.260;6.394;2022-07-06T10:10:34;17.80;99.90
51922;DHT22;37948;53.260;6.394;2022-07-06T10:13:01;17.80;99.90
51922;DHT22;37948;53.260;6.394;2022-07-06T10:15:29;17.90;99.90
51922;DHT22;37948;53.260;6.394;2022-07-06T10:18:00;18.00;99.90
51922;DHT22;37948;53.260;6.394;2022-07-06T10:20:34;18.00;99.90
51922;DHT22;37948;53.260;6.394;2022-07-06T10:23:03;18.20;99.90
51922;DHT22;37948;53.260;6.394;2022-07-06T10:25:29;18.30;99.90
51922;DHT22;37948;53.260;6.394;2022-07-06T10:27:55;18.40;99.90
51922;DHT22;37948;53.260;6.394;2022-07-06T10:30:22;18.60;99.90
51922;DHT22;37948;53.260;6.394;2022-07-06T10:32:49;18.70;99.90
51922;DHT22;37948;53.260;6.394;2022-07-06T10:35:17;18.80;99.90
51922;DHT22;37948;53.260;6.394;2022-07-06T10:37:44;18.60;99.90
51922;DHT22;37948;53.260;6.394;2022-07-06T10:40:10;18.70;99.90
51922;DHT22;37948;53.260;6.394;2022-07-06T10:42:57;18.70;99.90
51922;DHT22;37948;53.260;6.394;2022-07-06T10:50:36;19.10;99.90
51922;DHT22;37948;53.260;6.394;2022-07-06T10:53:02;19.20;99.90
51922;DHT22;37948;53.260;6.394;2022-07-06T10:55:28;19.30;99.90
51922;DHT22;37948;53.260;6.394;2022-07-06T10:57:54;19.20;99.90
51922;DHT22;37948;53.260;6.394;2022-07-06T11:00:20;19.20;99.90
51922;DHT22;37948;53.260;6.394;2022-07-06T11:02:46;19.30;99.90
51922;DHT22;37948;53.260;6.394;2022-07-06T11:05:11;19.40;99.90
51922;DHT22;37948;53.260;6.394;2022-07-06T11:07:50;19.60;99.90
51922;DHT22;37948;53.260;6.394;2022-07-06T11:10:16;19.60;99.90
51922;DHT22;37948;53.260;6.394;2022-07-06T11:12:45;19.40;99.90
51922;DHT22;37948;53.260;6.394;2022-07-06T11:15:10;19.40;99.90
51922;DHT22;37948;53.260;6.394;2022-07-06T11:17:36;19.40;99.90
51922;DHT22;37948;53.260;6.394;2022-07-06T11:20:10;19.40;99.90
51922;DHT22;37948;53.260;6.394;2022-07-06T11:22:37;19.50;99.90
51922;DHT22;37948;53.260;6.394;2022-07-06T11:25:06;19.60;99.90
51922;DHT22;37948;53.260;6.394;2022-07-06T11:27:34;19.80;99.90
51922;DHT22;37948;53.260;6.394;2022-07-06T11:30:00;19.90;99.90
51922;DHT22;37948;53.260;6.394;2022-07-06T11:32:26;19.80;99.90
51922;DHT22;37948;53.260;6.394;2022-07-06T11:34:52;19.80;99.90
51922;DHT22;37948;53.260;6.394;2022-07-06T11:37:19;19.80;99.90
51922;DHT22;37948;53.260;6.394;2022-07-06T11:39:47;19.90;99.90
51922;DHT22;37948;53.260;6.394;2022-07-06T11:42:14;19.90;99.90
51922;DHT22;37948;53.260;6.394;2022-07-06T11:44:41;19.90;99.90
51922;DHT22;37948;53.260;6.394;2022-07-06T11:47:08;20.10;99.90
51922;DHT22;37948;53.260;6.394;2022-07-06T11:49:36;20.10;99.90
51922;DHT22;37948;53.260;6.394;2022-07-06T11:52:13;20.10;99.90
51922;DHT22;37948;53.260;6.394;2022-07-06T11:54:39;20.20;99.90
51922;DHT22;37948;53.260;6.394;2022-07-06T11:57:08;20.20;99.90
51922;DHT22;37948;53.260;6.394;2022-07-06T11:59:39;20.20;99.90
51922;DHT22;37948;53.260;6.394;2022-07-06T12:02:10;20.30;99.90
51922;DHT22;37948;53.260;6.394;2022-07-06T12:04:38;20.30;99.90
51922;DHT22;37948;53.260;6.394;2022-07-06T12:07:06;20.20;99.90
51922;DHT22;37948;53.260;6.394;2022-07-06T12:09:37;20.20;99.90
51922;DHT22;37948;53.260;6.394;2022-07-06T12:12:04;20.10;99.90
51922;DHT22;37948;53.260;6.394;2022-07-06T12:14:32;20.00;99.90
51922;DHT22;37948;53.260;6.394;2022-07-06T12:17:20;20.00;99.90
51922;DHT22;37948;53.260;6.394;2022-07-06T12:19:52;19.90;99.90
51922;DHT22;37948;53.260;6.394;2022-07-06T12:22:25;19.80;99.90
51922;DHT22;37948;53.260;6.394;2022-07-06T12:24:50;19.80;99.90
51922;DHT22;37948;53.260;6.394;2022-07-06T12:27:18;19.70;99.90
51922;DHT22;37948;53.260;6.394;2022-07-06T12:29:45;19.90;99.90
51922;DHT22;37948;53.260;6.394;2022-07-06T12:32:22;19.90;99.90
51922;DHT22;37948;53.260;6.394;2022-07-06T12:35:08;19.90;99.90
51922;DHT22;37948;53.260;6.394;2022-07-06T12:37:34;19.80;99.90
51922;DHT22;37948;53.260;6.394;2022-07-06T12:40:00;19.70;99.90
51922;DHT22;37948;53.260;6.394;2022-07-06T12:42:26;19.70;99.90
51922;DHT22;37948;53.260;6.394;2022-07-06T12:44:53;19.70;99.90
51922;DHT22;37948;53.260;6.394;2022-07-06T12:47:24;19.70;99.90
51922;DHT22;37948;53.260;6.394;2022-07-06T12:50:05;19.70;99.90
51922;DHT22;37948;53.260;6.394;2022-07-06T12:52:31;19.70;99.90
51922;DHT22;37948;53.260;6.394;2022-07-06T12:55:00;19.60;99.90
51922;DHT22;37948;53.260;6.394;2022-07-06T12:57:26;19.60;99.90
51922;DHT22;37948;53.260;6.394;2022-07-06T13:02:25;19.40;99.90
51922;DHT22;37948;53.260;6.394;2022-07-06T13:05:08;19.30;99.90
51922;DHT22;37948;53.260;6.394;2022-07-06T13:07:36;19.30;99.90
51922;DHT22;37948;53.260;6.394;2022-07-06T13:10:04;19.30;99.90
51922;DHT22;37948;53.260;6.394;2022-07-06T13:12:30;19.20;99.90
51922;DHT22;37948;53.260;6.394;2022-07-06T13:14:56;19.20;99.90
51922;DHT22;37948;53.260;6.394;2022-07-06T13:17:21;19.20;99.90
51922;DHT22;37948;53.260;6.394;2022-07-06T13:19:47;19.20;99.90
51922;DHT22;37948;53.260;6.394;2022-07-06T13:22:12;19.20;99.90
51922;DHT22;37948;53.260;6.394;2022-07-06T13:24:38;19.10;99.90
51922;DHT22;37948;53.260;6.394;2022-07-06T13:27:04;19.10;99.90
51922;DHT22;37948;53.260;6.394;2022-07-06T13:29:29;19.20;99.90
51922;DHT22;37948;53.260;6.394;2022-07-06T13:31:55;19.10;99.90
51922;DHT22;37948;53.260;6.394;2022-07-06T13:34:21;19.10;99.90
51922;DHT22;37948;53.260;6.394;2022-07-06T13:36:46;19.10;99.90
51922;DHT22;37948;53.260;6.394;2022-07-06T13:39:12;19.00;99.90
51922;DHT22;37948;53.260;6.394;2022-07-06T13:41:38;19.00;99.90
51922;DHT22;37948;53.260;6.394;2022-07-06T13:44:04;18.90;99.90
51922;DHT22;37948;53.260;6.394;2022-07-06T13:46:30;18.80;99.90
51922;DHT22;37948;53.260;6.394;2022-07-06T13:48:57;18.80;99.90
51922;DHT22;37948;53.260;6.394;2022-07-06T13:51:23;18.90;99.90
51922;DHT22;37948;53.260;6.394;2022-07-06T13:53:49;18.80;99.90
51922;DHT22;37948;53.260;6.394;2022-07-06T13:56:16;18.80;99.90
51922;DHT22;37948;53.260;6.394;2022-07-06T13:58:42;18.80;99.90
51922;DHT22;37948;53.260;6.394;2022-07-06T14:01:08;18.80;99.90
51922;DHT22;37948;53.260;6.394;2022-07-06T14:03:34;18.70;99.90
51922;DHT22;37948;53.260;6.394;2022-07-06T14:06:00;18.70;99.90
51922;DHT22;37948;53.260;6.394;2022-07-06T14:08:29;18.60;99.90
51922;DHT22;37948;53.260;6.394;2022-07-06T14:10:55;18.60;99.90
51922;DHT22;37948;53.260;6.394;2022-07-06T14:13:21;18.50;99.90
51922;DHT22;37948;53.260;6.394;2022-07-06T14:15:47;18.50;99.90
51922;DHT22;37948;53.260;6.394;2022-07-06T14:18:13;18.50;99.90
51922;DHT22;37948;53.260;6.394;2022-07-06T14:20:40;18.40;99.90
51922;DHT22;37948;53.260;6.394;2022-07-06T14:23:06;18.40;99.90
51922;DHT22;37948;53.260;6.394;2022-07-06T14:25:32;18.30;99.90
51922;DHT22;37948;53.260;6.394;2022-07-06T14:27:58;18.20;99.90
51922;DHT22;37948;53.260;6.394;2022-07-06T14:30:23;18.20;99.90
51922;DHT22;37948;53.260;6.394;2022-07-06T14:32:49;18.20;99.90
51922;DHT22;37948;53.260;6.394;2022-07-06T14:35:14;18.20;99.90
51922;DHT22;37948;53.260;6.394;2022-07-06T14:37:40;18.10;99.90
51922;DHT22;37948;53.260;6.394;2022-07-06T14:40:06;18.10;99.90
51922;DHT22;37948;53.260;6.394;2022-07-06T14:42:32;18.00;99.90
51922;DHT22;37948;53.260;6.394;2022-07-06T14:44:57;17.90;99.90
51922;DHT22;37948;53.260;6.394;2022-07-06T14:47:23;17.90;99.90
51922;DHT22;37948;53.260;6.394;2022-07-06T14:49:48;17.80;99.90
51922;DHT22;37948;53.260;6.394;2022-07-06T14:52:16;17.60;99.90
51922;DHT22;37948;53.260;6.394;2022-07-06T14:54:41;17.60;99.90
51922;DHT22;37948;53.260;6.394;2022-07-06T14:57:07;17.50;99.90
51922;DHT22;37948;53.260;6.394;2022-07-06T14:59:34;17.50;99.90
51922;DHT22;37948;53.260;6.394;2022-07-06T15:02:00;17.40;99.90
51922;DHT22;37948;53.260;6.394;2022-07-06T15:04:26;17.40;99.90
51922;DHT22;37948;53.260;6.394;2022-07-06T15:06:51;17.40;99.90
51922;DHT22;37948;53.260;6.394;2022-07-06T15:09:17;17.40;99.90
51922;DHT22;37948;53.260;6.394;2022-07-06T15:11:42;17.40;99.90
51922;DHT22;37948;53.260;6.394;2022-07-06T15:14:10;17.40;99.90
51922;DHT22;37948;53.260;6.394;2022-07-06T15:16:37;17.30;99.90
51922;DHT22;37948;53.260;6.394;2022-07-06T15:19:02;17.40;99.90
51922;DHT22;37948;53.260;6.394;2022-07-06T15:21:28;17.30;99.90
51922;DHT22;37948;53.260;6.394;2022-07-06T15:23:53;17.20;99.90
51922;DHT22;37948;53.260;6.394;2022-07-06T15:26:19;17.10;99.90
51922;DHT22;37948;53.260;6.394;2022-07-06T15:28:45;17.10;99.90
51922;DHT22;37948;53.260;6.394;2022-07-06T15:31:10;16.90;99.90
51922;DHT22;37948;53.260;6.394;2022-07-06T15:33:36;16.90;99.90
51922;DHT22;37948;53.260;6.394;2022-07-06T15:36:01;16.80;99.90
51922;DHT22;37948;53.260;6.394;2022-07-06T15:38:27;16.70;99.90